sensor_id;sensor_type;location;lat;lon;timestamp;pressure;altitude;pressure_sealevel;temperature;humidity
31162;BME280;17796;49.296;-117.656;2022-12-08T00:12:01;96900;;;-2.51686;54.47919
31162;BME280;17796;49.296;-117.656;2022-12-08T00:27:14;96900;;;-2.24726;56.08731
31162;BME280;17796;49.296;-117.656;2022-12-08T00:42:18;96900;;;-1.9929;54.47946
31162;BME280;17796;49.296;-117.656;2022-12-08T00:57:22;96900;;;-2.27806;54.86648
31162;BME280;17796;49.296;-117.656;2022-12-08T01:12:27;96900;;;-1.90525;53.80432
31162;BME280;17796;49.296;-117.656;2022-12-08T01:27:31;96900;;;-2.41556;54.66937
31162;BME280;17796;49.296;-117.656;2022-12-08T01:42:35;96900;;;-4.07063;60.03389
31162;BME280;17796;49.296;-117.656;2022-12-08T01:57:40;96900;;;-3.07544;58.40532
31162;BME280;17796;49.296;-117.656;2022-12-08T02:12:48;96900;;;-2.35269;55.74358
31162;BME280;17796;49.296;-117.656;2022-12-08T02:27:57;96900;;;-2.79853;58.4306
31162;BME280;17796;49.296;-117.656;2022-12-08T02:43:09;96900;;;-2.91221;58.34288
31162;BME280;17796;49.296;-117.656;2022-12-08T02:58:21;96900;;;-3.44094;60.76615
31162;BME280;17796;49.296;-117.656;2022-12-08T03:13:38;96900;;;-2.67214;57.45463
31162;BME280;17796;49.296;-117.656;2022-12-08T03:28:45;96900;;;-3.30439;60.20762
31162;BME280;17796;49.296;-117.656;2022-12-08T03:43:49;96900;;;-3.56637;62.91338
31162;BME280;17796;49.296;-117.656;2022-12-08T03:58:54;96900;;;-2.80774;59.45567
31162;BME280;17796;49.296;-117.656;2022-12-08T04:13:58;96900;;;-3.06718;60.61876
31162;BME280;17796;49.296;-117.656;2022-12-08T04:29:02;96900;;;-3.1942;59.67988
31162;BME280;17796;49.296;-117.656;2022-12-08T04:44:06;96900;;;-3.34599;61.31609
31162;BME280;17796;49.296;-117.656;2022-12-08T04:59:09;96900;;;-2.89919;58.98716
31162;BME280;17796;49.296;-117.656;2022-12-08T05:14:14;96900;;;-3.21579;61.69406
31162;BME280;17796;49.296;-117.656;2022-12-08T05:29:18;96900;;;-2.26345;58.25614
31162;BME280;17796;49.296;-117.656;2022-12-08T05:44:22;96900;;;-2.94841;59.95506
31162;BME280;17796;49.296;-117.656;2022-12-08T05:59:26;96900;;;-3.1237;61.24202
31162;BME280;17796;49.296;-117.656;2022-12-08T06:14:29;96900;;;-2.3511;58.85819
31162;BME280;17796;49.296;-117.656;2022-12-08T06:29:33;96900;;;-3.35742;63.18767
31162;BME280;17796;49.296;-117.656;2022-12-08T06:44:37;96900;;;-2.99573;61.34215
31162;BME280;17796;49.296;-117.656;2022-12-08T06:59:41;96900;;;-2.77154;59.48502
31162;BME280;17796;49.296;-117.656;2022-12-08T07:14:44;96900;;;-3.22278;61.33424
31162;BME280;17796;49.296;-117.656;2022-12-08T07:29:48;96900;;;-2.39174;58.68101
31162;BME280;17796;49.296;-117.656;2022-12-08T07:44:52;96800;;;-3.43109;61.32196
31162;BME280;17796;49.296;-117.656;2022-12-08T07:59:55;96800;;;-2.58132;58.67656
31162;BME280;17796;49.296;-117.656;2022-12-08T08:14:59;96800;;;-2.56926;59.68688
31162;BME280;17796;49.296;-117.656;2022-12-08T08:30:03;96800;;;-3.1688;61.68598
31162;BME280;17796;49.296;-117.656;2022-12-08T08:45:08;96800;;;-2.92746;60.3978
31162;BME280;17796;49.296;-117.656;2022-12-08T09:00:14;96800;;;-2.4724;60.45622
31162;BME280;17796;49.296;-117.656;2022-12-08T09:15:18;96800;;;-2.53306;59.74888
31162;BME280;17796;49.296;-117.656;2022-12-08T09:30:21;96800;;;-2.42604;58.94677
31162;BME280;17796;49.296;-117.656;2022-12-08T09:45:25;96800;;;-2.8884;60.91242
31162;BME280;17796;49.296;-117.656;2022-12-08T10:00:34;96800;;;-3.36536;62.36548
31162;BME280;17796;49.296;-117.656;2022-12-08T10:15:40;96800;;;-2.64071;60.39763
31162;BME280;17796;49.296;-117.656;2022-12-08T10:30:48;96800;;;-3.4838;63.68006
31162;BME280;17796;49.296;-117.656;2022-12-08T10:45:52;96800;;;-2.82901;61.43916
31162;BME280;17796;49.296;-117.656;2022-12-08T11:00:56;96800;;;-2.72009;62.12702
31162;BME280;17796;49.296;-117.656;2022-12-08T11:16:03;96800;;;-3.0459;61.69876
31162;BME280;17796;49.296;-117.656;2022-12-08T11:31:16;96800;;;-3.11449;62.75659
31162;BME280;17796;49.296;-117.656;2022-12-08T11:46:30;96700;;;-3.16054;62.88439
31162;BME280;17796;49.296;-117.656;2022-12-08T12:01:38;96700;;;-2.78583;60.71115
31162;BME280;17796;49.296;-117.656;2022-12-08T12:16:46;96700;;;-3.43744;64.34658
31162;BME280;17796;49.296;-117.656;2022-12-08T12:32:02;96700;;;-3.23389;63.54925
31162;BME280;17796;49.296;-117.656;2022-12-08T12:47:10;96700;;;-2.7058;61.27194
31162;BME280;17796;49.296;-117.656;2022-12-08T13:02:17;96700;;;-2.5013;61.68209
31162;BME280;17796;49.296;-117.656;2022-12-08T13:17:26;96700;;;-3.99696;66.56266
31162;BME280;17796;49.296;-117.656;2022-12-08T13:33:04;96700;;;-3.54763;65.67647
31162;BME280;17796;49.296;-117.656;2022-12-08T13:48:14;96700;;;-2.81345;63.45631
31162;BME280;17796;49.296;-117.656;2022-12-08T14:03:25;96700;;;-3.76198;66.47087
31162;BME280;17796;49.296;-117.656;2022-12-08T14:18:30;96700;;;-3.10433;64.56993
31162;BME280;17796;49.296;-117.656;2022-12-08T14:33:33;96700;;;-3.22151;65.1388
31162;BME280;17796;49.296;-117.656;2022-12-08T14:48:42;96700;;;-2.62324;63.85535
31162;BME280;17796;49.296;-117.656;2022-12-08T15:03:46;96700;;;-2.31744;64.6766
31162;BME280;17796;49.296;-117.656;2022-12-08T15:19:00;96700;;;-2.5086;65.35052
31162;BME280;17796;49.296;-117.656;2022-12-08T15:34:06;96700;;;-2.34475;65.91756
31162;BME280;17796;49.296;-117.656;2022-12-08T15:49:14;96700;;;-2.31648;66.15931
31162;BME280;17796;49.296;-117.656;2022-12-08T16:04:20;96700;;;-2.2263;65.85488
31162;BME280;17796;49.296;-117.656;2022-12-08T16:19:24;96700;;;-2.55338;67.32995
31162;BME280;17796;49.296;-117.656;2022-12-08T16:34:27;96700;;;-3.42855;70.36741
31162;BME280;17796;49.296;-117.656;2022-12-08T16:49:31;96700;;;-2.27647;66.01494
31162;BME280;17796;49.296;-117.656;2022-12-08T17:04:35;96600;;;-2.20756;66.46124
31162;BME280;17796;49.296;-117.656;2022-12-08T17:19:39;96600;;;-1.72234;65.39834
31162;BME280;17796;49.296;-117.656;2022-12-08T17:34:43;96600;;;-2.18279;67.83089
31162;BME280;17796;49.296;-117.656;2022-12-08T17:49:46;96600;;;-2.62038;70.06768
31162;BME280;17796;49.296;-117.656;2022-12-08T18:04:50;96600;;;-2.02179;68.524
31162;BME280;17796;49.296;-117.656;2022-12-08T18:19:54;96600;;;-2.64833;70.8758
31162;BME280;17796;49.296;-117.656;2022-12-08T18:34:57;96600;;;-1.9875;68.83177
31162;BME280;17796;49.296;-117.656;2022-12-08T18:50:02;96600;;;-1.61532;68.61994
31162;BME280;17796;49.296;-117.656;2022-12-08T19:05:07;96600;;;-2.24472;72.45387
31162;BME280;17796;49.296;-117.656;2022-12-08T19:20:13;96500;;;-1.84904;70.61893
31162;BME280;17796;49.296;-117.656;2022-12-08T19:35:16;96500;;;-1.79538;70.43794
31162;BME280;17796;49.296;-117.656;2022-12-08T19:50:21;96500;;;-1.01768;66.98191
31162;BME280;17796;49.296;-117.656;2022-12-08T20:05:24;96500;;;-1.42066;69.42575
31162;BME280;17796;49.296;-117.656;2022-12-08T20:20:28;96500;;;-0.66138;66.93604
31162;BME280;17796;49.296;-117.656;2022-12-08T20:35:32;96400;;;-0.20473;65.79078
31162;BME280;17796;49.296;-117.656;2022-12-08T20:50:36;96400;;;-0.50927;67.29147
31162;BME280;17796;49.296;-117.656;2022-12-08T21:05:40;96400;;;-0.72997;68.00839
31162;BME280;17796;49.296;-117.656;2022-12-08T21:20:50;96400;;;-0.69567;67.46957
31162;BME280;17796;49.296;-117.656;2022-12-08T21:36:00;96400;;;-0.24061;65.54187
31162;BME280;17796;49.296;-117.656;2022-12-08T21:51:04;96300;;;-0.97386;68.66801
31162;BME280;17796;49.296;-117.656;2022-12-08T22:06:08;96300;;;-0.36128;66.61783
31162;BME280;17796;49.296;-117.656;2022-12-08T22:21:14;96300;;;-1.83602;73.63716
31162;BME280;17796;49.296;-117.656;2022-12-08T22:36:20;96300;;;-1.76172;73.7144
31162;BME280;17796;49.296;-117.656;2022-12-08T22:51:24;96300;;;-1.03292;70.37281
31162;BME280;17796;49.296;-117.656;2022-12-08T23:06:28;96300;;;-0.85731;69.6711
31162;BME280;17796;49.296;-117.656;2022-12-08T23:21:32;96300;;;-1.06595;70.78506
31162;BME280;17796;49.296;-117.656;2022-12-08T23:36:36;96300;;;-0.65915;68.42365
31162;BME280;17796;49.296;-117.656;2022-12-08T23:51:40;96200;;;-1.87318;74.05303
